sensor_id;sensor_type;location;lat;lon;timestamp;temperature;humidity
34542;DHT22;20784;51.332;12.410;2024-03-06T00:00:06;5.40;99.90
34542;DHT22;20784;51.332;12.410;2024-03-06T00:02:35;5.30;99.90
34542;DHT22;20784;51.332;12.410;2024-03-06T00:05:01;5.30;99.90
34542;DHT22;20784;51.332;12.410;2024-03-06T00:07:27;5.30;99.90
34542;DHT22;20784;51.332;12.410;2024-03-06T00:09:52;5.30;99.90
34542;DHT22;20784;51.332;12.410;2024-03-06T00:12:18;5.20;99.90
34542;DHT22;20784;51.332;12.410;2024-03-06T00:14:44;5.20;99.90
34542;DHT22;20784;51.332;12.410;2024-03-06T00:17:10;5.30;99.90
34542;DHT22;20784;51.332;12.410;2024-03-06T00:19:35;5.30;99.90
34542;DHT22;20784;51.332;12.410;2024-03-06T00:22:01;5.30;99.90
34542;DHT22;20784;51.332;12.410;2024-03-06T00:24:30;5.20;99.90
34542;DHT22;20784;51.332;12.410;2024-03-06T00:26:56;5.20;99.90
34542;DHT22;20784;51.332;12.410;2024-03-06T00:29:21;5.10;99.90
34542;DHT22;20784;51.332;12.410;2024-03-06T00:31:47;5.10;99.90
34542;DHT22;20784;51.332;12.410;2024-03-06T00:34:13;5.20;99.90
34542;DHT22;20784;51.332;12.410;2024-03-06T00:36:42;5.20;99.90
34542;DHT22;20784;51.332;12.410;2024-03-06T00:39:09;5.20;99.90
34542;DHT22;20784;51.332;12.410;2024-03-06T00:41:35;5.30;99.90
34542;DHT22;20784;51.332;12.410;2024-03-06T00:44:00;5.40;99.90
34542;DHT22;20784;51.332;12.410;2024-03-06T00:46:26;5.30;99.90
34542;DHT22;20784;51.332;12.410;2024-03-06T00:48:51;5.30;99.90
34542;DHT22;20784;51.332;12.410;2024-03-06T00:51:17;5.30;99.90
34542;DHT22;20784;51.332;12.410;2024-03-06T00:53:43;5.20;99.90
34542;DHT22;20784;51.332;12.410;2024-03-06T00:56:08;5.30;99.90
34542;DHT22;20784;51.332;12.410;2024-03-06T00:58:34;5.30;99.90
34542;DHT22;20784;51.332;12.410;2024-03-06T01:01:00;5.30;99.90
34542;DHT22;20784;51.332;12.410;2024-03-06T01:03:25;5.20;99.90
34542;DHT22;20784;51.332;12.410;2024-03-06T01:05:51;5.20;99.90
34542;DHT22;20784;51.332;12.410;2024-03-06T01:08:26;5.20;99.90
34542;DHT22;20784;51.332;12.410;2024-03-06T01:10:51;5.10;99.90
34542;DHT22;20784;51.332;12.410;2024-03-06T01:13:20;5.00;99.90
34542;DHT22;20784;51.332;12.410;2024-03-06T01:15:46;6.10;99.90
34542;DHT22;20784;51.332;12.410;2024-03-06T01:18:11;5.20;99.90
34542;DHT22;20784;51.332;12.410;2024-03-06T01:20:37;5.00;99.90
34542;DHT22;20784;51.332;12.410;2024-03-06T01:23:03;4.90;99.90
34542;DHT22;20784;51.332;12.410;2024-03-06T01:25:29;4.90;99.90
34542;DHT22;20784;51.332;12.410;2024-03-06T01:27:54;4.80;99.90
34542;DHT22;20784;51.332;12.410;2024-03-06T01:30:20;4.70;99.90
34542;DHT22;20784;51.332;12.410;2024-03-06T01:32:45;4.70;99.90
34542;DHT22;20784;51.332;12.410;2024-03-06T01:35:11;4.70;99.90
34542;DHT22;20784;51.332;12.410;2024-03-06T01:37:37;4.60;99.90
34542;DHT22;20784;51.332;12.410;2024-03-06T01:40:03;4.60;99.90
34542;DHT22;20784;51.332;12.410;2024-03-06T01:42:30;4.50;99.90
34542;DHT22;20784;51.332;12.410;2024-03-06T01:44:55;4.60;99.90
34542;DHT22;20784;51.332;12.410;2024-03-06T01:47:21;4.40;99.90
34542;DHT22;20784;51.332;12.410;2024-03-06T01:49:46;4.40;99.90
34542;DHT22;20784;51.332;12.410;2024-03-06T01:52:14;4.40;99.90
34542;DHT22;20784;51.332;12.410;2024-03-06T01:54:40;4.40;99.90
34542;DHT22;20784;51.332;12.410;2024-03-06T01:57:10;4.40;99.90
34542;DHT22;20784;51.332;12.410;2024-03-06T01:59:38;4.40;99.90
34542;DHT22;20784;51.332;12.410;2024-03-06T02:02:05;4.30;99.90
34542;DHT22;20784;51.332;12.410;2024-03-06T02:04:33;4.20;99.90
34542;DHT22;20784;51.332;12.410;2024-03-06T02:06:58;4.10;99.90
34542;DHT22;20784;51.332;12.410;2024-03-06T02:09:24;4.10;99.90
34542;DHT22;20784;51.332;12.410;2024-03-06T02:11:49;4.00;99.90
34542;DHT22;20784;51.332;12.410;2024-03-06T02:14:18;4.00;99.90
34542;DHT22;20784;51.332;12.410;2024-03-06T02:16:43;4.00;99.90
34542;DHT22;20784;51.332;12.410;2024-03-06T02:19:09;4.00;99.90
34542;DHT22;20784;51.332;12.410;2024-03-06T02:21:34;4.00;99.90
34542;DHT22;20784;51.332;12.410;2024-03-06T02:24:00;3.80;99.90
34542;DHT22;20784;51.332;12.410;2024-03-06T02:26:26;3.90;99.90
34542;DHT22;20784;51.332;12.410;2024-03-06T02:28:53;3.90;99.90
34542;DHT22;20784;51.332;12.410;2024-03-06T02:31:19;4.00;99.90
34542;DHT22;20784;51.332;12.410;2024-03-06T02:33:47;3.90;99.90
34542;DHT22;20784;51.332;12.410;2024-03-06T02:36:14;3.90;99.90
34542;DHT22;20784;51.332;12.410;2024-03-06T02:38:39;3.90;99.90
34542;DHT22;20784;51.332;12.410;2024-03-06T02:41:05;4.00;99.90
34542;DHT22;20784;51.332;12.410;2024-03-06T02:43:32;3.90;99.90
34542;DHT22;20784;51.332;12.410;2024-03-06T02:45:58;3.90;99.90
34542;DHT22;20784;51.332;12.410;2024-03-06T02:48:23;3.90;99.90
34542;DHT22;20784;51.332;12.410;2024-03-06T02:50:49;3.90;99.90
34542;DHT22;20784;51.332;12.410;2024-03-06T02:53:14;3.90;99.90
34542;DHT22;20784;51.332;12.410;2024-03-06T02:55:40;3.90;99.90
34542;DHT22;20784;51.332;12.410;2024-03-06T02:58:06;3.70;99.90
34542;DHT22;20784;51.332;12.410;2024-03-06T03:00:31;3.90;99.90
34542;DHT22;20784;51.332;12.410;2024-03-06T03:02:57;3.80;99.90
34542;DHT22;20784;51.332;12.410;2024-03-06T03:05:23;3.80;99.90
34542;DHT22;20784;51.332;12.410;2024-03-06T03:07:49;3.70;99.90
34542;DHT22;20784;51.332;12.410;2024-03-06T03:10:15;3.60;99.90
34542;DHT22;20784;51.332;12.410;2024-03-06T03:12:41;3.60;99.90
34542;DHT22;20784;51.332;12.410;2024-03-06T03:15:07;3.60;99.90
34542;DHT22;20784;51.332;12.410;2024-03-06T03:17:32;3.60;99.90
34542;DHT22;20784;51.332;12.410;2024-03-06T03:19:59;3.60;99.90
34542;DHT22;20784;51.332;12.410;2024-03-06T03:22:25;3.50;99.90
34542;DHT22;20784;51.332;12.410;2024-03-06T03:24:50;3.60;99.90
34542;DHT22;20784;51.332;12.410;2024-03-06T03:27:16;3.50;99.90
34542;DHT22;20784;51.332;12.410;2024-03-06T03:29:42;3.40;99.90
34542;DHT22;20784;51.332;12.410;2024-03-06T03:32:07;3.30;99.90
34542;DHT22;20784;51.332;12.410;2024-03-06T03:34:34;3.30;99.90
34542;DHT22;20784;51.332;12.410;2024-03-06T03:37:00;3.40;99.90
34542;DHT22;20784;51.332;12.410;2024-03-06T03:39:25;3.40;99.90
34542;DHT22;20784;51.332;12.410;2024-03-06T03:41:52;3.40;99.90
34542;DHT22;20784;51.332;12.410;2024-03-06T03:44:18;3.30;99.90
34542;DHT22;20784;51.332;12.410;2024-03-06T03:46:45;3.30;99.90
34542;DHT22;20784;51.332;12.410;2024-03-06T03:49:11;3.30;99.90
34542;DHT22;20784;51.332;12.410;2024-03-06T03:51:38;3.30;99.90
34542;DHT22;20784;51.332;12.410;2024-03-06T03:54:04;3.20;99.90
34542;DHT22;20784;51.332;12.410;2024-03-06T03:56:30;3.30;99.90
34542;DHT22;20784;51.332;12.410;2024-03-06T03:58:56;3.30;99.90
34542;DHT22;20784;51.332;12.410;2024-03-06T04:01:22;3.20;99.90
34542;DHT22;20784;51.332;12.410;2024-03-06T04:03:48;3.20;99.90
34542;DHT22;20784;51.332;12.410;2024-03-06T04:06:14;3.10;99.90
34542;DHT22;20784;51.332;12.410;2024-03-06T04:08:39;3.10;99.90
34542;DHT22;20784;51.332;12.410;2024-03-06T04:11:05;3.10;99.90
34542;DHT22;20784;51.332;12.410;2024-03-06T04:13:35;3.10;99.90
34542;DHT22;20784;51.332;12.410;2024-03-06T04:16:01;3.10;99.90
34542;DHT22;20784;51.332;12.410;2024-03-06T04:18:28;3.10;99.90
34542;DHT22;20784;51.332;12.410;2024-03-06T04:20:54;3.10;99.90
34542;DHT22;20784;51.332;12.410;2024-03-06T04:23:20;3.10;99.90
34542;DHT22;20784;51.332;12.410;2024-03-06T04:25:45;3.00;99.90
34542;DHT22;20784;51.332;12.410;2024-03-06T04:28:11;3.00;99.90
34542;DHT22;20784;51.332;12.410;2024-03-06T04:30:36;3.00;99.90
34542;DHT22;20784;51.332;12.410;2024-03-06T04:33:02;3.00;99.90
34542;DHT22;20784;51.332;12.410;2024-03-06T04:35:28;3.00;99.90
34542;DHT22;20784;51.332;12.410;2024-03-06T04:37:56;2.90;99.90
34542;DHT22;20784;51.332;12.410;2024-03-06T04:40:22;3.10;99.90
34542;DHT22;20784;51.332;12.410;2024-03-06T04:42:50;3.00;99.90
34542;DHT22;20784;51.332;12.410;2024-03-06T04:45:16;3.10;99.90
34542;DHT22;20784;51.332;12.410;2024-03-06T04:47:42;3.10;99.90
34542;DHT22;20784;51.332;12.410;2024-03-06T04:50:12;3.10;99.90
34542;DHT22;20784;51.332;12.410;2024-03-06T04:52:40;3.00;99.90
34542;DHT22;20784;51.332;12.410;2024-03-06T04:55:06;3.00;99.90
34542;DHT22;20784;51.332;12.410;2024-03-06T04:57:34;3.00;99.90
34542;DHT22;20784;51.332;12.410;2024-03-06T04:59:59;3.00;99.90
34542;DHT22;20784;51.332;12.410;2024-03-06T05:02:25;3.00;99.90
34542;DHT22;20784;51.332;12.410;2024-03-06T05:04:51;2.90;99.90
34542;DHT22;20784;51.332;12.410;2024-03-06T05:07:17;2.80;99.90
34542;DHT22;20784;51.332;12.410;2024-03-06T05:09:42;2.80;99.90
34542;DHT22;20784;51.332;12.410;2024-03-06T05:12:08;2.80;99.90
34542;DHT22;20784;51.332;12.410;2024-03-06T05:14:33;2.90;99.90
34542;DHT22;20784;51.332;12.410;2024-03-06T05:16:59;2.70;99.90
34542;DHT22;20784;51.332;12.410;2024-03-06T05:19:25;2.70;99.90
34542;DHT22;20784;51.332;12.410;2024-03-06T05:21:58;2.70;99.90
34542;DHT22;20784;51.332;12.410;2024-03-06T05:24:24;2.70;99.90
34542;DHT22;20784;51.332;12.410;2024-03-06T05:26:49;2.80;99.90
34542;DHT22;20784;51.332;12.410;2024-03-06T05:29:15;2.70;99.90
34542;DHT22;20784;51.332;12.410;2024-03-06T05:31:40;2.70;99.90
34542;DHT22;20784;51.332;12.410;2024-03-06T05:34:09;2.70;99.90
34542;DHT22;20784;51.332;12.410;2024-03-06T05:36:35;2.70;99.90
34542;DHT22;20784;51.332;12.410;2024-03-06T05:39:00;2.60;99.90
34542;DHT22;20784;51.332;12.410;2024-03-06T05:41:26;2.60;99.90
34542;DHT22;20784;51.332;12.410;2024-03-06T05:43:51;2.70;99.90
34542;DHT22;20784;51.332;12.410;2024-03-06T05:46:17;2.70;99.90
34542;DHT22;20784;51.332;12.410;2024-03-06T05:48:44;2.60;99.90
34542;DHT22;20784;51.332;12.410;2024-03-06T05:51:13;2.70;99.90
34542;DHT22;20784;51.332;12.410;2024-03-06T05:53:38;2.70;99.90
34542;DHT22;20784;51.332;12.410;2024-03-06T05:56:06;2.70;99.90
34542;DHT22;20784;51.332;12.410;2024-03-06T05:58:32;2.70;99.90
34542;DHT22;20784;51.332;12.410;2024-03-06T06:00:58;2.70;99.90
34542;DHT22;20784;51.332;12.410;2024-03-06T06:03:23;2.60;99.90
34542;DHT22;20784;51.332;12.410;2024-03-06T06:05:56;2.60;99.90
34542;DHT22;20784;51.332;12.410;2024-03-06T06:08:22;2.60;99.90
34542;DHT22;20784;51.332;12.410;2024-03-06T06:10:48;2.60;99.90
34542;DHT22;20784;51.332;12.410;2024-03-06T06:13:17;2.60;99.90
34542;DHT22;20784;51.332;12.410;2024-03-06T06:15:43;2.60;99.90
34542;DHT22;20784;51.332;12.410;2024-03-06T06:18:08;2.60;99.90
34542;DHT22;20784;51.332;12.410;2024-03-06T06:20:35;2.60;99.90
34542;DHT22;20784;51.332;12.410;2024-03-06T06:23:01;2.60;99.90
34542;DHT22;20784;51.332;12.410;2024-03-06T06:25:27;2.60;99.90
34542;DHT22;20784;51.332;12.410;2024-03-06T06:27:52;2.60;99.90
34542;DHT22;20784;51.332;12.410;2024-03-06T06:30:18;2.70;99.90
34542;DHT22;20784;51.332;12.410;2024-03-06T06:32:44;2.80;99.90
34542;DHT22;20784;51.332;12.410;2024-03-06T06:35:10;2.80;99.90
34542;DHT22;20784;51.332;12.410;2024-03-06T06:37:38;2.80;99.90
34542;DHT22;20784;51.332;12.410;2024-03-06T06:40:08;2.90;99.90
34542;DHT22;20784;51.332;12.410;2024-03-06T06:42:34;2.90;99.90
34542;DHT22;20784;51.332;12.410;2024-03-06T06:45:00;3.00;99.90
34542;DHT22;20784;51.332;12.410;2024-03-06T06:47:26;3.10;99.90
34542;DHT22;20784;51.332;12.410;2024-03-06T06:52:18;3.20;99.90
34542;DHT22;20784;51.332;12.410;2024-03-06T06:54:44;3.40;99.90
34542;DHT22;20784;51.332;12.410;2024-03-06T06:57:10;3.60;99.90
34542;DHT22;20784;51.332;12.410;2024-03-06T06:59:36;3.70;99.90
34542;DHT22;20784;51.332;12.410;2024-03-06T07:02:02;3.80;99.90
34542;DHT22;20784;51.332;12.410;2024-03-06T07:04:31;4.00;99.90
34542;DHT22;20784;51.332;12.410;2024-03-06T07:07:00;4.10;99.90
34542;DHT22;20784;51.332;12.410;2024-03-06T07:12:31;4.40;99.90
34542;DHT22;20784;51.332;12.410;2024-03-06T07:15:06;5.00;99.90
34542;DHT22;20784;51.332;12.410;2024-03-06T07:17:38;5.10;99.90
34542;DHT22;20784;51.332;12.410;2024-03-06T07:20:09;5.20;99.90
34542;DHT22;20784;51.332;12.410;2024-03-06T07:22:38;5.30;99.90
34542;DHT22;20784;51.332;12.410;2024-03-06T07:25:04;5.40;99.90
34542;DHT22;20784;51.332;12.410;2024-03-06T07:27:31;5.50;99.90
34542;DHT22;20784;51.332;12.410;2024-03-06T07:29:56;5.50;99.90
34542;DHT22;20784;51.332;12.410;2024-03-06T07:32:26;5.70;99.90
34542;DHT22;20784;51.332;12.410;2024-03-06T07:35:01;6.00;99.90
34542;DHT22;20784;51.332;12.410;2024-03-06T07:37:29;6.30;99.90
34542;DHT22;20784;51.332;12.410;2024-03-06T07:39:59;6.30;99.90
34542;DHT22;20784;51.332;12.410;2024-03-06T07:42:25;6.50;99.90
34542;DHT22;20784;51.332;12.410;2024-03-06T07:44:51;6.80;99.90
34542;DHT22;20784;51.332;12.410;2024-03-06T07:47:17;6.50;99.90
34542;DHT22;20784;51.332;12.410;2024-03-06T07:49:48;7.00;99.90
34542;DHT22;20784;51.332;12.410;2024-03-06T07:52:16;6.90;99.90
34542;DHT22;20784;51.332;12.410;2024-03-06T07:54:49;6.90;99.90
34542;DHT22;20784;51.332;12.410;2024-03-06T07:57:16;6.90;99.90
34542;DHT22;20784;51.332;12.410;2024-03-06T07:59:43;7.00;99.90
34542;DHT22;20784;51.332;12.410;2024-03-06T08:02:11;7.40;99.90
34542;DHT22;20784;51.332;12.410;2024-03-06T08:04:45;7.40;99.90
34542;DHT22;20784;51.332;12.410;2024-03-06T08:07:16;7.80;99.90
34542;DHT22;20784;51.332;12.410;2024-03-06T08:10:08;8.10;99.90
34542;DHT22;20784;51.332;12.410;2024-03-06T08:13:02;8.50;99.90
34542;DHT22;20784;51.332;12.410;2024-03-06T08:15:30;8.60;99.90
34542;DHT22;20784;51.332;12.410;2024-03-06T08:18:03;8.90;99.90
34542;DHT22;20784;51.332;12.410;2024-03-06T08:20:41;9.10;99.90
34542;DHT22;20784;51.332;12.410;2024-03-06T08:23:16;9.40;99.90
34542;DHT22;20784;51.332;12.410;2024-03-06T08:25:42;9.60;99.90
34542;DHT22;20784;51.332;12.410;2024-03-06T08:28:10;9.80;99.90
34542;DHT22;20784;51.332;12.410;2024-03-06T08:30:41;10.10;99.90
34542;DHT22;20784;51.332;12.410;2024-03-06T08:33:10;10.40;99.90
34542;DHT22;20784;51.332;12.410;2024-03-06T08:35:43;10.80;99.90
34542;DHT22;20784;51.332;12.410;2024-03-06T08:38:12;11.10;99.90
34542;DHT22;20784;51.332;12.410;2024-03-06T08:40:40;11.10;99.90
34542;DHT22;20784;51.332;12.410;2024-03-06T08:43:11;11.50;99.90
34542;DHT22;20784;51.332;12.410;2024-03-06T08:45:38;11.50;99.90
34542;DHT22;20784;51.332;12.410;2024-03-06T08:48:04;11.70;99.90
34542;DHT22;20784;51.332;12.410;2024-03-06T08:50:31;12.00;99.90
34542;DHT22;20784;51.332;12.410;2024-03-06T08:52:56;12.60;99.90
34542;DHT22;20784;51.332;12.410;2024-03-06T08:55:24;12.60;99.90
34542;DHT22;20784;51.332;12.410;2024-03-06T08:57:50;12.80;99.90
34542;DHT22;20784;51.332;12.410;2024-03-06T09:00:18;12.90;99.90
34542;DHT22;20784;51.332;12.410;2024-03-06T09:02:46;13.00;99.90
34542;DHT22;20784;51.332;12.410;2024-03-06T09:05:12;13.10;99.90
34542;DHT22;20784;51.332;12.410;2024-03-06T09:07:39;13.10;99.90
34542;DHT22;20784;51.332;12.410;2024-03-06T09:10:12;13.40;99.90
34542;DHT22;20784;51.332;12.410;2024-03-06T09:12:46;13.50;99.90
34542;DHT22;20784;51.332;12.410;2024-03-06T09:15:17;13.70;99.90
34542;DHT22;20784;51.332;12.410;2024-03-06T09:17:56;13.60;99.90
34542;DHT22;20784;51.332;12.410;2024-03-06T09:20:22;14.10;99.90
34542;DHT22;20784;51.332;12.410;2024-03-06T09:22:58;14.40;99.90
34542;DHT22;20784;51.332;12.410;2024-03-06T09:25:25;14.30;99.90
34542;DHT22;20784;51.332;12.410;2024-03-06T09:27:51;14.20;99.90
34542;DHT22;20784;51.332;12.410;2024-03-06T09:30:17;14.40;99.90
34542;DHT22;20784;51.332;12.410;2024-03-06T09:32:52;14.60;99.90
34542;DHT22;20784;51.332;12.410;2024-03-06T09:38:28;15.30;99.90
34542;DHT22;20784;51.332;12.410;2024-03-06T09:41:00;15.50;99.90
34542;DHT22;20784;51.332;12.410;2024-03-06T09:43:26;15.60;99.90
34542;DHT22;20784;51.332;12.410;2024-03-06T09:45:54;15.90;99.90
34542;DHT22;20784;51.332;12.410;2024-03-06T09:48:22;15.80;99.90
34542;DHT22;20784;51.332;12.410;2024-03-06T09:50:51;15.70;99.90
34542;DHT22;20784;51.332;12.410;2024-03-06T09:53:21;15.80;99.90
34542;DHT22;20784;51.332;12.410;2024-03-06T09:55:48;16.30;99.90
34542;DHT22;20784;51.332;12.410;2024-03-06T09:58:17;16.20;99.90
34542;DHT22;20784;51.332;12.410;2024-03-06T10:00:55;16.00;99.90
34542;DHT22;20784;51.332;12.410;2024-03-06T10:03:24;16.10;99.90
34542;DHT22;20784;51.332;12.410;2024-03-06T10:05:50;16.40;99.90
34542;DHT22;20784;51.332;12.410;2024-03-06T10:08:15;16.60;99.90
34542;DHT22;20784;51.332;12.410;2024-03-06T10:10:42;17.10;99.90
34542;DHT22;20784;51.332;12.410;2024-03-06T10:13:27;16.90;99.90
34542;DHT22;20784;51.332;12.410;2024-03-06T10:16:08;16.90;99.90
34542;DHT22;20784;51.332;12.410;2024-03-06T10:18:42;16.90;99.90
34542;DHT22;20784;51.332;12.410;2024-03-06T10:21:08;17.00;99.90
34542;DHT22;20784;51.332;12.410;2024-03-06T10:23:35;16.90;99.90
34542;DHT22;20784;51.332;12.410;2024-03-06T10:26:09;16.80;99.90
34542;DHT22;20784;51.332;12.410;2024-03-06T10:28:35;16.90;99.90
34542;DHT22;20784;51.332;12.410;2024-03-06T10:31:04;17.00;99.90
34542;DHT22;20784;51.332;12.410;2024-03-06T10:33:34;17.00;99.90
34542;DHT22;20784;51.332;12.410;2024-03-06T10:36:10;17.00;99.90
34542;DHT22;20784;51.332;12.410;2024-03-06T10:38:41;17.20;99.90
34542;DHT22;20784;51.332;12.410;2024-03-06T10:41:23;17.20;99.90
34542;DHT22;20784;51.332;12.410;2024-03-06T10:43:50;17.30;99.90
34542;DHT22;20784;51.332;12.410;2024-03-06T10:46:22;17.60;99.90
34542;DHT22;20784;51.332;12.410;2024-03-06T10:48:49;17.80;99.90
34542;DHT22;20784;51.332;12.410;2024-03-06T10:51:18;17.90;99.90
34542;DHT22;20784;51.332;12.410;2024-03-06T10:53:47;17.70;99.90
34542;DHT22;20784;51.332;12.410;2024-03-06T10:56:20;17.80;99.90
34542;DHT22;20784;51.332;12.410;2024-03-06T10:58:53;17.60;99.90
34542;DHT22;20784;51.332;12.410;2024-03-06T11:01:29;17.40;99.90
34542;DHT22;20784;51.332;12.410;2024-03-06T11:04:07;16.70;99.90
34542;DHT22;20784;51.332;12.410;2024-03-06T11:06:39;16.00;99.90
34542;DHT22;20784;51.332;12.410;2024-03-06T11:09:05;16.40;99.90
34542;DHT22;20784;51.332;12.410;2024-03-06T11:11:51;16.20;99.90
34542;DHT22;20784;51.332;12.410;2024-03-06T11:14:21;16.00;99.90
34542;DHT22;20784;51.332;12.410;2024-03-06T11:16:57;16.10;99.90
34542;DHT22;20784;51.332;12.410;2024-03-06T11:19:26;15.40;99.90
34542;DHT22;20784;51.332;12.410;2024-03-06T11:21:52;15.10;99.90
34542;DHT22;20784;51.332;12.410;2024-03-06T11:24:21;15.10;99.90
34542;DHT22;20784;51.332;12.410;2024-03-06T11:27:05;15.10;99.90
34542;DHT22;20784;51.332;12.410;2024-03-06T11:32:58;15.40;99.90
34542;DHT22;20784;51.332;12.410;2024-03-06T11:35:35;15.40;99.90
34542;DHT22;20784;51.332;12.410;2024-03-06T11:38:07;15.40;99.90
34542;DHT22;20784;51.332;12.410;2024-03-06T11:40:50;15.80;99.90
34542;DHT22;20784;51.332;12.410;2024-03-06T11:43:43;15.60;99.90
34542;DHT22;20784;51.332;12.410;2024-03-06T11:46:12;15.40;99.90
34542;DHT22;20784;51.332;12.410;2024-03-06T11:48:43;15.60;99.90
34542;DHT22;20784;51.332;12.410;2024-03-06T11:51:09;15.50;99.90
34542;DHT22;20784;51.332;12.410;2024-03-06T11:53:37;15.70;99.90
34542;DHT22;20784;51.332;12.410;2024-03-06T11:56:06;15.50;99.90
34542;DHT22;20784;51.332;12.410;2024-03-06T11:58:33;15.40;99.90
34542;DHT22;20784;51.332;12.410;2024-03-06T12:01:13;15.50;99.90
34542;DHT22;20784;51.332;12.410;2024-03-06T12:03:39;15.00;99.90
34542;DHT22;20784;51.332;12.410;2024-03-06T12:06:08;14.50;99.90
34542;DHT22;20784;51.332;12.410;2024-03-06T12:08:47;14.60;99.90
34542;DHT22;20784;51.332;12.410;2024-03-06T12:11:16;14.70;99.90
34542;DHT22;20784;51.332;12.410;2024-03-06T12:13:45;14.70;99.90
34542;DHT22;20784;51.332;12.410;2024-03-06T12:16:11;14.50;99.90
34542;DHT22;20784;51.332;12.410;2024-03-06T12:18:37;14.40;99.90
34542;DHT22;20784;51.332;12.410;2024-03-06T12:21:05;14.20;99.90
34542;DHT22;20784;51.332;12.410;2024-03-06T12:23:33;14.50;99.90
34542;DHT22;20784;51.332;12.410;2024-03-06T12:26:06;14.80;99.90
34542;DHT22;20784;51.332;12.410;2024-03-06T12:28:35;15.30;99.90
34542;DHT22;20784;51.332;12.410;2024-03-06T12:31:04;15.60;99.90
34542;DHT22;20784;51.332;12.410;2024-03-06T12:33:38;15.50;99.90
34542;DHT22;20784;51.332;12.410;2024-03-06T12:36:31;15.50;99.90
34542;DHT22;20784;51.332;12.410;2024-03-06T12:39:03;15.30;99.90
34542;DHT22;20784;51.332;12.410;2024-03-06T12:41:35;15.40;99.90
34542;DHT22;20784;51.332;12.410;2024-03-06T12:44:09;15.30;99.90
34542;DHT22;20784;51.332;12.410;2024-03-06T12:46:41;15.00;99.90
34542;DHT22;20784;51.332;12.410;2024-03-06T12:49:12;14.90;99.90
34542;DHT22;20784;51.332;12.410;2024-03-06T12:51:40;14.90;99.90
34542;DHT22;20784;51.332;12.410;2024-03-06T12:54:12;15.20;99.90
34542;DHT22;20784;51.332;12.410;2024-03-06T12:56:38;15.20;99.90
34542;DHT22;20784;51.332;12.410;2024-03-06T12:59:06;14.80;99.90
34542;DHT22;20784;51.332;12.410;2024-03-06T13:01:34;14.30;99.90
34542;DHT22;20784;51.332;12.410;2024-03-06T13:04:00;14.10;99.90
34542;DHT22;20784;51.332;12.410;2024-03-06T13:06:25;13.60;99.90
34542;DHT22;20784;51.332;12.410;2024-03-06T13:08:59;13.30;99.90
34542;DHT22;20784;51.332;12.410;2024-03-06T13:11:35;13.30;99.90
34542;DHT22;20784;51.332;12.410;2024-03-06T13:14:00;13.80;99.90
34542;DHT22;20784;51.332;12.410;2024-03-06T13:16:29;14.00;99.90
34542;DHT22;20784;51.332;12.410;2024-03-06T13:18:55;13.40;99.90
34542;DHT22;20784;51.332;12.410;2024-03-06T13:21:24;13.10;99.90
34542;DHT22;20784;51.332;12.410;2024-03-06T13:23:54;12.90;99.90
34542;DHT22;20784;51.332;12.410;2024-03-06T13:26:25;12.60;99.90
34542;DHT22;20784;51.332;12.410;2024-03-06T13:28:50;12.40;99.90
34542;DHT22;20784;51.332;12.410;2024-03-06T13:31:19;12.50;99.90
34542;DHT22;20784;51.332;12.410;2024-03-06T13:33:48;12.80;99.90
34542;DHT22;20784;51.332;12.410;2024-03-06T13:36:14;12.90;99.90
34542;DHT22;20784;51.332;12.410;2024-03-06T13:38:40;13.20;99.90
34542;DHT22;20784;51.332;12.410;2024-03-06T13:41:06;13.40;99.90
34542;DHT22;20784;51.332;12.410;2024-03-06T13:43:37;13.70;99.90
34542;DHT22;20784;51.332;12.410;2024-03-06T13:46:05;14.00;99.90
34542;DHT22;20784;51.332;12.410;2024-03-06T13:48:34;13.70;99.90
34542;DHT22;20784;51.332;12.410;2024-03-06T13:51:05;13.50;99.90
34542;DHT22;20784;51.332;12.410;2024-03-06T14:03:04;12.70;99.90
34542;DHT22;20784;51.332;12.410;2024-03-06T14:05:33;12.80;99.90
34542;DHT22;20784;51.332;12.410;2024-03-06T14:07:59;12.60;99.90
34542;DHT22;20784;51.332;12.410;2024-03-06T14:10:36;12.70;99.90
34542;DHT22;20784;51.332;12.410;2024-03-06T14:13:04;12.80;99.90
34542;DHT22;20784;51.332;12.410;2024-03-06T14:15:50;12.40;99.90
34542;DHT22;20784;51.332;12.410;2024-03-06T14:18:23;12.60;99.90
34542;DHT22;20784;51.332;12.410;2024-03-06T14:20:54;12.50;99.90
34542;DHT22;20784;51.332;12.410;2024-03-06T14:23:22;12.50;99.90
34542;DHT22;20784;51.332;12.410;2024-03-06T14:25:55;12.40;99.90
34542;DHT22;20784;51.332;12.410;2024-03-06T14:28:21;12.20;99.90
34542;DHT22;20784;51.332;12.410;2024-03-06T14:30:47;12.20;99.90
34542;DHT22;20784;51.332;12.410;2024-03-06T14:33:13;12.20;99.90
34542;DHT22;20784;51.332;12.410;2024-03-06T14:35:50;12.10;99.90
34542;DHT22;20784;51.332;12.410;2024-03-06T14:38:18;12.00;99.90
34542;DHT22;20784;51.332;12.410;2024-03-06T14:43:47;12.00;99.90
34542;DHT22;20784;51.332;12.410;2024-03-06T14:46:20;11.80;99.90
34542;DHT22;20784;51.332;12.410;2024-03-06T14:48:46;12.10;99.90
34542;DHT22;20784;51.332;12.410;2024-03-06T14:51:19;12.00;99.90
34542;DHT22;20784;51.332;12.410;2024-03-06T14:54:05;12.00;99.90
34542;DHT22;20784;51.332;12.410;2024-03-06T14:56:36;12.00;99.90
34542;DHT22;20784;51.332;12.410;2024-03-06T14:59:04;11.60;99.90
34542;DHT22;20784;51.332;12.410;2024-03-06T15:01:45;11.50;99.90
34542;DHT22;20784;51.332;12.410;2024-03-06T15:04:21;11.30;99.90
34542;DHT22;20784;51.332;12.410;2024-03-06T15:06:46;11.30;99.90
34542;DHT22;20784;51.332;12.410;2024-03-06T15:09:13;11.30;99.90
34542;DHT22;20784;51.332;12.410;2024-03-06T15:11:41;11.30;99.90
34542;DHT22;20784;51.332;12.410;2024-03-06T15:14:07;11.30;99.90
34542;DHT22;20784;51.332;12.410;2024-03-06T15:16:36;11.20;99.90
34542;DHT22;20784;51.332;12.410;2024-03-06T15:19:02;11.10;99.90
34542;DHT22;20784;51.332;12.410;2024-03-06T15:21:29;11.10;99.90
34542;DHT22;20784;51.332;12.410;2024-03-06T15:23:56;11.00;99.90
34542;DHT22;20784;51.332;12.410;2024-03-06T15:26:21;10.90;99.90
34542;DHT22;20784;51.332;12.410;2024-03-06T15:28:47;10.70;99.90
34542;DHT22;20784;51.332;12.410;2024-03-06T15:31:12;10.60;99.90
34542;DHT22;20784;51.332;12.410;2024-03-06T15:33:38;10.60;99.90
34542;DHT22;20784;51.332;12.410;2024-03-06T15:36:06;10.60;99.90
34542;DHT22;20784;51.332;12.410;2024-03-06T15:38:35;10.70;99.90
34542;DHT22;20784;51.332;12.410;2024-03-06T15:41:03;10.70;99.90
34542;DHT22;20784;51.332;12.410;2024-03-06T15:43:29;10.40;99.90
34542;DHT22;20784;51.332;12.410;2024-03-06T15:45:54;10.30;99.90
34542;DHT22;20784;51.332;12.410;2024-03-06T15:48:20;10.40;99.90
34542;DHT22;20784;51.332;12.410;2024-03-06T15:50:45;10.20;99.90
34542;DHT22;20784;51.332;12.410;2024-03-06T15:53:11;10.00;99.90
34542;DHT22;20784;51.332;12.410;2024-03-06T15:55:38;9.90;99.90